sensor_id;sensor_type;location;lat;lon;timestamp;temperature;humidity
18287;DHT22;9269;50.838;12.094;2023-10-19T00:00:14;10.30;49.30
18287;DHT22;9269;50.838;12.094;2023-10-19T00:02:49;10.40;49.30
18287;DHT22;9269;50.838;12.094;2023-10-19T00:05:41;10.30;49.60
18287;DHT22;9269;50.838;12.094;2023-10-19T00:08:10;10.30;49.40
18287;DHT22;9269;50.838;12.094;2023-10-19T00:10:45;10.40;49.20
18287;DHT22;9269;50.838;12.094;2023-10-19T00:13:17;10.40;49.70
18287;DHT22;9269;50.838;12.094;2023-10-19T00:15:47;10.40;49.50
18287;DHT22;9269;50.838;12.094;2023-10-19T00:18:19;10.40;50.00
18287;DHT22;9269;50.838;12.094;2023-10-19T00:20:52;10.50;50.00
18287;DHT22;9269;50.838;12.094;2023-10-19T00:23:23;10.50;50.10
18287;DHT22;9269;50.838;12.094;2023-10-19T00:26:02;10.50;50.00
18287;DHT22;9269;50.838;12.094;2023-10-19T00:28:36;10.50;49.70
18287;DHT22;9269;50.838;12.094;2023-10-19T00:31:06;10.50;50.10
18287;DHT22;9269;50.838;12.094;2023-10-19T00:33:36;10.50;50.80
18287;DHT22;9269;50.838;12.094;2023-10-19T00:36:08;10.50;50.70
18287;DHT22;9269;50.838;12.094;2023-10-19T00:38:41;10.50;50.80
18287;DHT22;9269;50.838;12.094;2023-10-19T00:41:21;10.60;50.90
18287;DHT22;9269;50.838;12.094;2023-10-19T00:43:52;10.70;51.50
18287;DHT22;9269;50.838;12.094;2023-10-19T00:46:25;10.70;51.70
18287;DHT22;9269;50.838;12.094;2023-10-19T00:49:01;10.60;52.20
18287;DHT22;9269;50.838;12.094;2023-10-19T00:51:35;10.60;52.40
18287;DHT22;9269;50.838;12.094;2023-10-19T00:54:21;10.70;52.80
18287;DHT22;9269;50.838;12.094;2023-10-19T00:56:56;10.70;53.40
18287;DHT22;9269;50.838;12.094;2023-10-19T00:59:26;10.70;53.30
18287;DHT22;9269;50.838;12.094;2023-10-19T01:02:03;10.80;53.40
18287;DHT22;9269;50.838;12.094;2023-10-19T01:04:46;10.70;53.30
18287;DHT22;9269;50.838;12.094;2023-10-19T01:07:18;10.80;53.00
18287;DHT22;9269;50.838;12.094;2023-10-19T01:09:56;10.80;53.20
18287;DHT22;9269;50.838;12.094;2023-10-19T01:12:29;10.80;53.10
18287;DHT22;9269;50.838;12.094;2023-10-19T01:15:08;10.90;52.60
18287;DHT22;9269;50.838;12.094;2023-10-19T01:17:42;10.90;52.80
18287;DHT22;9269;50.838;12.094;2023-10-19T01:20:14;10.80;52.80
18287;DHT22;9269;50.838;12.094;2023-10-19T01:23:08;11.00;52.50
18287;DHT22;9269;50.838;12.094;2023-10-19T01:25:50;10.90;52.60
18287;DHT22;9269;50.838;12.094;2023-10-19T01:28:28;10.90;52.30
18287;DHT22;9269;50.838;12.094;2023-10-19T01:31:26;11.00;52.20
18287;DHT22;9269;50.838;12.094;2023-10-19T01:34:06;11.00;52.00
18287;DHT22;9269;50.838;12.094;2023-10-19T01:36:37;10.90;52.20
18287;DHT22;9269;50.838;12.094;2023-10-19T01:39:11;11.00;52.00
18287;DHT22;9269;50.838;12.094;2023-10-19T01:41:41;11.00;51.80
18287;DHT22;9269;50.838;12.094;2023-10-19T01:44:10;10.90;52.00
18287;DHT22;9269;50.838;12.094;2023-10-19T01:46:42;11.00;51.80
18287;DHT22;9269;50.838;12.094;2023-10-19T01:49:13;11.00;51.80
18287;DHT22;9269;50.838;12.094;2023-10-19T01:51:43;11.00;52.20
18287;DHT22;9269;50.838;12.094;2023-10-19T01:54:16;11.00;52.40
18287;DHT22;9269;50.838;12.094;2023-10-19T01:56:45;11.00;52.20
18287;DHT22;9269;50.838;12.094;2023-10-19T01:59:16;11.10;52.20
18287;DHT22;9269;50.838;12.094;2023-10-19T02:01:44;11.00;51.90
18287;DHT22;9269;50.838;12.094;2023-10-19T02:04:14;11.10;51.90
18287;DHT22;9269;50.838;12.094;2023-10-19T02:06:43;11.20;51.90
18287;DHT22;9269;50.838;12.094;2023-10-19T02:09:14;11.10;52.20
18287;DHT22;9269;50.838;12.094;2023-10-19T02:11:51;11.20;52.70
18287;DHT22;9269;50.838;12.094;2023-10-19T02:14:26;11.10;52.60
18287;DHT22;9269;50.838;12.094;2023-10-19T02:16:58;11.10;53.50
18287;DHT22;9269;50.838;12.094;2023-10-19T02:19:30;11.30;53.90
18287;DHT22;9269;50.838;12.094;2023-10-19T02:21:59;11.10;53.90
18287;DHT22;9269;50.838;12.094;2023-10-19T02:24:31;11.20;54.50
18287;DHT22;9269;50.838;12.094;2023-10-19T02:27:02;11.20;54.20
18287;DHT22;9269;50.838;12.094;2023-10-19T02:29:34;11.20;54.90
18287;DHT22;9269;50.838;12.094;2023-10-19T02:32:04;11.20;55.00
18287;DHT22;9269;50.838;12.094;2023-10-19T02:34:34;11.20;54.80
18287;DHT22;9269;50.838;12.094;2023-10-19T02:37:04;11.30;54.90
18287;DHT22;9269;50.838;12.094;2023-10-19T02:39:35;11.40;55.30
18287;DHT22;9269;50.838;12.094;2023-10-19T02:42:05;11.30;55.60
18287;DHT22;9269;50.838;12.094;2023-10-19T02:44:36;11.30;56.20
18287;DHT22;9269;50.838;12.094;2023-10-19T02:47:05;11.30;56.70
18287;DHT22;9269;50.838;12.094;2023-10-19T02:49:37;11.40;56.90
18287;DHT22;9269;50.838;12.094;2023-10-19T02:52:06;11.50;57.40
18287;DHT22;9269;50.838;12.094;2023-10-19T02:54:35;11.40;57.50
18287;DHT22;9269;50.838;12.094;2023-10-19T02:57:05;11.40;58.30
18287;DHT22;9269;50.838;12.094;2023-10-19T02:59:39;11.40;58.60
18287;DHT22;9269;50.838;12.094;2023-10-19T03:02:08;11.30;58.60
18287;DHT22;9269;50.838;12.094;2023-10-19T03:04:45;11.40;58.80
18287;DHT22;9269;50.838;12.094;2023-10-19T03:07:14;11.50;59.50
18287;DHT22;9269;50.838;12.094;2023-10-19T03:09:43;11.40;59.60
18287;DHT22;9269;50.838;12.094;2023-10-19T03:12:19;11.40;59.60
18287;DHT22;9269;50.838;12.094;2023-10-19T03:14:47;11.50;59.70
18287;DHT22;9269;50.838;12.094;2023-10-19T03:17:18;11.50;59.80
18287;DHT22;9269;50.838;12.094;2023-10-19T03:19:46;11.50;60.00
18287;DHT22;9269;50.838;12.094;2023-10-19T03:22:17;11.60;60.20
18287;DHT22;9269;50.838;12.094;2023-10-19T03:24:45;11.60;60.20
18287;DHT22;9269;50.838;12.094;2023-10-19T03:27:15;11.60;60.40
18287;DHT22;9269;50.838;12.094;2023-10-19T03:29:47;11.60;60.40
18287;DHT22;9269;50.838;12.094;2023-10-19T03:32:22;11.70;60.70
18287;DHT22;9269;50.838;12.094;2023-10-19T03:34:55;11.60;60.50
18287;DHT22;9269;50.838;12.094;2023-10-19T03:37:25;11.60;60.50
18287;DHT22;9269;50.838;12.094;2023-10-19T03:39:58;11.60;60.60
18287;DHT22;9269;50.838;12.094;2023-10-19T03:42:29;11.60;60.70
18287;DHT22;9269;50.838;12.094;2023-10-19T03:45:02;11.70;60.80
18287;DHT22;9269;50.838;12.094;2023-10-19T03:47:45;11.80;60.90
18287;DHT22;9269;50.838;12.094;2023-10-19T03:50:17;11.70;61.00
18287;DHT22;9269;50.838;12.094;2023-10-19T03:52:50;11.70;61.30
18287;DHT22;9269;50.838;12.094;2023-10-19T03:55:19;11.70;61.40
18287;DHT22;9269;50.838;12.094;2023-10-19T03:57:51;11.70;61.50
18287;DHT22;9269;50.838;12.094;2023-10-19T04:00:23;11.90;61.60
18287;DHT22;9269;50.838;12.094;2023-10-19T04:02:55;11.70;61.80
18287;DHT22;9269;50.838;12.094;2023-10-19T04:05:26;11.80;61.60
18287;DHT22;9269;50.838;12.094;2023-10-19T04:07:56;11.70;61.70
18287;DHT22;9269;50.838;12.094;2023-10-19T04:10:32;11.70;62.10
18287;DHT22;9269;50.838;12.094;2023-10-19T04:13:12;11.70;62.10
18287;DHT22;9269;50.838;12.094;2023-10-19T04:15:42;11.70;62.50
18287;DHT22;9269;50.838;12.094;2023-10-19T04:18:13;11.70;62.40
18287;DHT22;9269;50.838;12.094;2023-10-19T04:20:42;11.70;62.50
18287;DHT22;9269;50.838;12.094;2023-10-19T04:23:23;11.70;62.40
18287;DHT22;9269;50.838;12.094;2023-10-19T04:25:55;11.80;62.40
18287;DHT22;9269;50.838;12.094;2023-10-19T04:28:29;11.70;63.00
18287;DHT22;9269;50.838;12.094;2023-10-19T04:31:07;11.70;62.90
18287;DHT22;9269;50.838;12.094;2023-10-19T04:33:41;11.70;63.00
18287;DHT22;9269;50.838;12.094;2023-10-19T04:36:16;11.70;62.70
18287;DHT22;9269;50.838;12.094;2023-10-19T04:38:58;11.70;62.50
18287;DHT22;9269;50.838;12.094;2023-10-19T04:41:29;11.70;62.90
18287;DHT22;9269;50.838;12.094;2023-10-19T04:44:02;11.70;62.70
18287;DHT22;9269;50.838;12.094;2023-10-19T04:46:34;11.80;63.00
18287;DHT22;9269;50.838;12.094;2023-10-19T04:49:07;11.80;63.20
18287;DHT22;9269;50.838;12.094;2023-10-19T04:51:36;11.70;62.90
18287;DHT22;9269;50.838;12.094;2023-10-19T04:54:06;11.70;62.90
18287;DHT22;9269;50.838;12.094;2023-10-19T04:56:37;11.70;62.90
18287;DHT22;9269;50.838;12.094;2023-10-19T04:59:15;11.70;62.90
18287;DHT22;9269;50.838;12.094;2023-10-19T05:01:48;11.80;63.30
18287;DHT22;9269;50.838;12.094;2023-10-19T05:04:23;11.70;63.20
18287;DHT22;9269;50.838;12.094;2023-10-19T05:06:56;11.70;63.80
18287;DHT22;9269;50.838;12.094;2023-10-19T05:09:25;11.70;63.00
18287;DHT22;9269;50.838;12.094;2023-10-19T05:12:14;11.70;63.30
18287;DHT22;9269;50.838;12.094;2023-10-19T05:14:48;11.80;63.50
18287;DHT22;9269;50.838;12.094;2023-10-19T05:17:25;11.80;63.70
18287;DHT22;9269;50.838;12.094;2023-10-19T05:19:55;11.70;63.20
18287;DHT22;9269;50.838;12.094;2023-10-19T05:22:25;11.80;63.20
18287;DHT22;9269;50.838;12.094;2023-10-19T05:24:57;11.80;63.70
18287;DHT22;9269;50.838;12.094;2023-10-19T05:27:45;11.80;63.30
18287;DHT22;9269;50.838;12.094;2023-10-19T05:30:16;11.90;63.40
18287;DHT22;9269;50.838;12.094;2023-10-19T05:33:04;11.80;63.70
18287;DHT22;9269;50.838;12.094;2023-10-19T05:35:52;11.90;63.80
18287;DHT22;9269;50.838;12.094;2023-10-19T05:38:23;11.70;63.70
18287;DHT22;9269;50.838;12.094;2023-10-19T05:40:52;11.70;64.00
18287;DHT22;9269;50.838;12.094;2023-10-19T05:43:24;11.80;64.00
18287;DHT22;9269;50.838;12.094;2023-10-19T05:45:56;11.70;70.70
18287;DHT22;9269;50.838;12.094;2023-10-19T05:48:34;11.80;70.80
18287;DHT22;9269;50.838;12.094;2023-10-19T05:51:03;11.80;70.90
18287;DHT22;9269;50.838;12.094;2023-10-19T05:53:32;11.70;71.00
18287;DHT22;9269;50.838;12.094;2023-10-19T05:56:00;11.80;71.10
18287;DHT22;9269;50.838;12.094;2023-10-19T05:58:30;11.80;71.10
18287;DHT22;9269;50.838;12.094;2023-10-19T06:00:58;11.70;71.00
18287;DHT22;9269;50.838;12.094;2023-10-19T06:03:27;11.90;71.20
18287;DHT22;9269;50.838;12.094;2023-10-19T06:05:58;11.80;71.20
18287;DHT22;9269;50.838;12.094;2023-10-19T06:08:27;11.90;71.40
18287;DHT22;9269;50.838;12.094;2023-10-19T06:10:56;11.90;71.30
18287;DHT22;9269;50.838;12.094;2023-10-19T06:13:25;11.90;71.20
18287;DHT22;9269;50.838;12.094;2023-10-19T06:15:54;11.90;71.30
18287;DHT22;9269;50.838;12.094;2023-10-19T06:18:23;12.00;71.30
18287;DHT22;9269;50.838;12.094;2023-10-19T06:20:51;12.00;71.30
18287;DHT22;9269;50.838;12.094;2023-10-19T06:23:23;12.00;71.30
18287;DHT22;9269;50.838;12.094;2023-10-19T06:25:53;12.00;71.50
18287;DHT22;9269;50.838;12.094;2023-10-19T06:28:22;12.00;71.50
18287;DHT22;9269;50.838;12.094;2023-10-19T06:30:51;12.10;71.60
18287;DHT22;9269;50.838;12.094;2023-10-19T06:33:20;12.10;71.60
18287;DHT22;9269;50.838;12.094;2023-10-19T06:35:50;12.10;71.50
18287;DHT22;9269;50.838;12.094;2023-10-19T06:38:18;12.10;71.50
18287;DHT22;9269;50.838;12.094;2023-10-19T06:40:49;12.20;71.70
18287;DHT22;9269;50.838;12.094;2023-10-19T06:43:19;12.10;71.50
18287;DHT22;9269;50.838;12.094;2023-10-19T06:45:51;12.20;71.60
18287;DHT22;9269;50.838;12.094;2023-10-19T06:48:27;12.20;71.70
18287;DHT22;9269;50.838;12.094;2023-10-19T06:50:56;12.10;71.50
18287;DHT22;9269;50.838;12.094;2023-10-19T06:53:25;12.20;71.60
18287;DHT22;9269;50.838;12.094;2023-10-19T06:55:55;12.30;71.50
18287;DHT22;9269;50.838;12.094;2023-10-19T06:58:24;12.30;71.70
18287;DHT22;9269;50.838;12.094;2023-10-19T07:00:53;12.30;71.70
18287;DHT22;9269;50.838;12.094;2023-10-19T07:03:28;12.40;71.60
18287;DHT22;9269;50.838;12.094;2023-10-19T07:05:57;12.50;71.60
18287;DHT22;9269;50.838;12.094;2023-10-19T07:08:25;12.50;71.60
18287;DHT22;9269;50.838;12.094;2023-10-19T07:10:56;12.40;71.60
18287;DHT22;9269;50.838;12.094;2023-10-19T07:13:25;12.40;71.80
18287;DHT22;9269;50.838;12.094;2023-10-19T07:15:55;12.50;71.80
18287;DHT22;9269;50.838;12.094;2023-10-19T07:18:23;12.60;71.60
18287;DHT22;9269;50.838;12.094;2023-10-19T07:20:52;12.50;71.70
18287;DHT22;9269;50.838;12.094;2023-10-19T07:23:28;12.60;71.60
18287;DHT22;9269;50.838;12.094;2023-10-19T07:25:58;12.60;71.70
18287;DHT22;9269;50.838;12.094;2023-10-19T07:28:32;12.60;71.70
18287;DHT22;9269;50.838;12.094;2023-10-19T07:31:06;12.70;71.70
18287;DHT22;9269;50.838;12.094;2023-10-19T07:33:40;12.60;71.60
18287;DHT22;9269;50.838;12.094;2023-10-19T07:36:14;12.70;71.70
18287;DHT22;9269;50.838;12.094;2023-10-19T07:38:42;12.70;65.40
18287;DHT22;9269;50.838;12.094;2023-10-19T07:41:14;12.60;71.60
18287;DHT22;9269;50.838;12.094;2023-10-19T07:43:43;12.70;65.50
18287;DHT22;9269;50.838;12.094;2023-10-19T07:46:12;12.70;65.30
18287;DHT22;9269;50.838;12.094;2023-10-19T07:48:41;12.80;65.00
18287;DHT22;9269;50.838;12.094;2023-10-19T07:51:10;12.70;65.30
18287;DHT22;9269;50.838;12.094;2023-10-19T07:53:39;12.70;65.20
18287;DHT22;9269;50.838;12.094;2023-10-19T07:56:08;12.80;65.20
18287;DHT22;9269;50.838;12.094;2023-10-19T07:58:39;12.80;65.80
18287;DHT22;9269;50.838;12.094;2023-10-19T08:01:10;12.80;65.80
18287;DHT22;9269;50.838;12.094;2023-10-19T08:03:42;12.90;65.50
18287;DHT22;9269;50.838;12.094;2023-10-19T08:06:10;13.00;65.50
18287;DHT22;9269;50.838;12.094;2023-10-19T08:08:40;13.00;65.50
18287;DHT22;9269;50.838;12.094;2023-10-19T08:11:09;13.00;65.40
18287;DHT22;9269;50.838;12.094;2023-10-19T08:13:41;13.10;65.60
18287;DHT22;9269;50.838;12.094;2023-10-19T08:16:12;13.10;65.40
18287;DHT22;9269;50.838;12.094;2023-10-19T08:18:41;13.20;65.20
18287;DHT22;9269;50.838;12.094;2023-10-19T08:21:09;13.20;65.20
18287;DHT22;9269;50.838;12.094;2023-10-19T08:23:38;13.40;65.40
18287;DHT22;9269;50.838;12.094;2023-10-19T08:26:08;13.40;65.40
18287;DHT22;9269;50.838;12.094;2023-10-19T08:28:36;13.40;65.50
18287;DHT22;9269;50.838;12.094;2023-10-19T08:31:09;13.50;65.20
18287;DHT22;9269;50.838;12.094;2023-10-19T08:33:38;13.60;65.20
18287;DHT22;9269;50.838;12.094;2023-10-19T08:36:16;13.60;65.00
18287;DHT22;9269;50.838;12.094;2023-10-19T08:38:47;13.70;64.90
18287;DHT22;9269;50.838;12.094;2023-10-19T08:41:16;13.70;64.70
18287;DHT22;9269;50.838;12.094;2023-10-19T08:43:45;13.80;65.00
18287;DHT22;9269;50.838;12.094;2023-10-19T08:46:18;13.80;65.10
18287;DHT22;9269;50.838;12.094;2023-10-19T08:48:46;13.80;64.80
18287;DHT22;9269;50.838;12.094;2023-10-19T08:51:16;13.90;64.90
18287;DHT22;9269;50.838;12.094;2023-10-19T08:53:45;13.90;64.90
18287;DHT22;9269;50.838;12.094;2023-10-19T08:56:15;14.10;64.90
18287;DHT22;9269;50.838;12.094;2023-10-19T08:58:45;14.10;64.40
18287;DHT22;9269;50.838;12.094;2023-10-19T09:01:14;14.20;65.00
18287;DHT22;9269;50.838;12.094;2023-10-19T09:03:50;14.20;64.60
18287;DHT22;9269;50.838;12.094;2023-10-19T09:06:20;14.30;64.50
18287;DHT22;9269;50.838;12.094;2023-10-19T09:08:49;14.30;64.50
18287;DHT22;9269;50.838;12.094;2023-10-19T09:11:22;14.40;64.30
18287;DHT22;9269;50.838;12.094;2023-10-19T09:13:55;14.40;64.50
18287;DHT22;9269;50.838;12.094;2023-10-19T09:16:25;14.40;64.50
18287;DHT22;9269;50.838;12.094;2023-10-19T09:18:57;14.40;64.30
18287;DHT22;9269;50.838;12.094;2023-10-19T09:21:27;14.50;64.40
18287;DHT22;9269;50.838;12.094;2023-10-19T09:23:59;14.60;64.40
18287;DHT22;9269;50.838;12.094;2023-10-19T09:26:28;14.60;64.10
18287;DHT22;9269;50.838;12.094;2023-10-19T09:28:57;14.70;63.80
18287;DHT22;9269;50.838;12.094;2023-10-19T09:31:27;14.70;63.80
18287;DHT22;9269;50.838;12.094;2023-10-19T09:34:01;14.70;63.80
18287;DHT22;9269;50.838;12.094;2023-10-19T09:36:39;14.70;63.80
18287;DHT22;9269;50.838;12.094;2023-10-19T09:39:12;14.80;63.80
18287;DHT22;9269;50.838;12.094;2023-10-19T09:42:06;14.90;63.80
18287;DHT22;9269;50.838;12.094;2023-10-19T09:44:41;14.90;63.80
18287;DHT22;9269;50.838;12.094;2023-10-19T09:47:14;15.10;63.50
18287;DHT22;9269;50.838;12.094;2023-10-19T09:49:46;15.00;63.80
18287;DHT22;9269;50.838;12.094;2023-10-19T09:52:17;15.10;63.70
18287;DHT22;9269;50.838;12.094;2023-10-19T09:54:52;15.10;63.50
18287;DHT22;9269;50.838;12.094;2023-10-19T09:57:30;15.20;63.40
18287;DHT22;9269;50.838;12.094;2023-10-19T10:00:03;15.20;63.80
18287;DHT22;9269;50.838;12.094;2023-10-19T10:02:37;15.20;63.60
18287;DHT22;9269;50.838;12.094;2023-10-19T10:08:31;15.50;62.40
18287;DHT22;9269;50.838;12.094;2023-10-19T10:11:15;15.50;62.00
18287;DHT22;9269;50.838;12.094;2023-10-19T10:13:45;15.50;61.80
18287;DHT22;9269;50.838;12.094;2023-10-19T10:16:16;15.60;61.80
18287;DHT22;9269;50.838;12.094;2023-10-19T10:18:47;15.80;61.90
18287;DHT22;9269;50.838;12.094;2023-10-19T10:21:19;16.00;61.60
18287;DHT22;9269;50.838;12.094;2023-10-19T10:23:52;16.10;61.40
18287;DHT22;9269;50.838;12.094;2023-10-19T10:26:22;16.20;61.00
18287;DHT22;9269;50.838;12.094;2023-10-19T10:29:08;16.10;61.60
18287;DHT22;9269;50.838;12.094;2023-10-19T10:31:43;16.20;61.00
18287;DHT22;9269;50.838;12.094;2023-10-19T10:34:43;16.30;60.90
18287;DHT22;9269;50.838;12.094;2023-10-19T10:37:13;16.30;61.10
18287;DHT22;9269;50.838;12.094;2023-10-19T10:39:43;16.50;60.90
18287;DHT22;9269;50.838;12.094;2023-10-19T10:42:12;16.50;60.50
18287;DHT22;9269;50.838;12.094;2023-10-19T10:44:44;16.40;60.50
18287;DHT22;9269;50.838;12.094;2023-10-19T10:47:17;16.40;60.90
18287;DHT22;9269;50.838;12.094;2023-10-19T10:49:50;16.30;60.80
18287;DHT22;9269;50.838;12.094;2023-10-19T10:52:28;16.30;60.60
18287;DHT22;9269;50.838;12.094;2023-10-19T10:55:06;16.40;61.10
18287;DHT22;9269;50.838;12.094;2023-10-19T10:57:35;16.30;61.40
18287;DHT22;9269;50.838;12.094;2023-10-19T11:00:05;16.40;61.10
18287;DHT22;9269;50.838;12.094;2023-10-19T11:02:36;16.50;61.00
18287;DHT22;9269;50.838;12.094;2023-10-19T11:05:10;16.60;61.40
18287;DHT22;9269;50.838;12.094;2023-10-19T11:07:40;16.50;61.10
18287;DHT22;9269;50.838;12.094;2023-10-19T11:10:11;16.60;61.10
18287;DHT22;9269;50.838;12.094;2023-10-19T11:12:41;16.60;61.00
18287;DHT22;9269;50.838;12.094;2023-10-19T11:15:09;16.70;61.40
18287;DHT22;9269;50.838;12.094;2023-10-19T11:17:43;16.70;61.40
18287;DHT22;9269;50.838;12.094;2023-10-19T11:20:21;16.80;61.60
18287;DHT22;9269;50.838;12.094;2023-10-19T11:22:51;16.80;61.60
18287;DHT22;9269;50.838;12.094;2023-10-19T11:25:26;16.90;61.10
18287;DHT22;9269;50.838;12.094;2023-10-19T11:27:56;16.90;61.10
18287;DHT22;9269;50.838;12.094;2023-10-19T11:30:26;17.00;60.80
18287;DHT22;9269;50.838;12.094;2023-10-19T11:32:56;17.00;61.20
18287;DHT22;9269;50.838;12.094;2023-10-19T11:35:30;17.20;61.10
18287;DHT22;9269;50.838;12.094;2023-10-19T11:38:00;17.20;61.00
18287;DHT22;9269;50.838;12.094;2023-10-19T11:40:33;17.20;61.10
18287;DHT22;9269;50.838;12.094;2023-10-19T11:43:03;17.30;61.20
18287;DHT22;9269;50.838;12.094;2023-10-19T11:45:32;17.30;61.10
18287;DHT22;9269;50.838;12.094;2023-10-19T11:48:03;17.40;61.40
18287;DHT22;9269;50.838;12.094;2023-10-19T11:50:33;17.40;61.10
18287;DHT22;9269;50.838;12.094;2023-10-19T11:53:02;17.40;61.20
18287;DHT22;9269;50.838;12.094;2023-10-19T11:55:30;17.50;61.10
18287;DHT22;9269;50.838;12.094;2023-10-19T11:58:01;17.60;61.60
18287;DHT22;9269;50.838;12.094;2023-10-19T12:00:31;17.50;61.50
18287;DHT22;9269;50.838;12.094;2023-10-19T12:03:05;17.60;61.30
18287;DHT22;9269;50.838;12.094;2023-10-19T12:05:35;17.50;61.40
18287;DHT22;9269;50.838;12.094;2023-10-19T12:08:05;17.60;61.40
18287;DHT22;9269;50.838;12.094;2023-10-19T12:10:34;17.50;61.40
18287;DHT22;9269;50.838;12.094;2023-10-19T12:13:05;17.60;61.10
18287;DHT22;9269;50.838;12.094;2023-10-19T12:15:35;17.60;61.60
18287;DHT22;9269;50.838;12.094;2023-10-19T12:18:04;17.70;61.30
18287;DHT22;9269;50.838;12.094;2023-10-19T12:20:35;17.60;60.80
18287;DHT22;9269;50.838;12.094;2023-10-19T12:23:05;17.90;61.20
18287;DHT22;9269;50.838;12.094;2023-10-19T12:25:33;17.90;60.80
18287;DHT22;9269;50.838;12.094;2023-10-19T12:28:24;18.10;60.70
18287;DHT22;9269;50.838;12.094;2023-10-19T12:30:52;18.20;59.20
18287;DHT22;9269;50.838;12.094;2023-10-19T12:33:23;18.30;58.60
18287;DHT22;9269;50.838;12.094;2023-10-19T12:35:54;18.40;58.80
18287;DHT22;9269;50.838;12.094;2023-10-19T12:38:25;18.50;58.30
18287;DHT22;9269;50.838;12.094;2023-10-19T12:40:54;18.70;58.00
18287;DHT22;9269;50.838;12.094;2023-10-19T12:43:25;18.60;58.20
18287;DHT22;9269;50.838;12.094;2023-10-19T12:45:53;18.70;58.10
18287;DHT22;9269;50.838;12.094;2023-10-19T12:48:23;18.60;57.70
18287;DHT22;9269;50.838;12.094;2023-10-19T12:50:57;18.70;57.60
18287;DHT22;9269;50.838;12.094;2023-10-19T12:53:26;18.60;57.70
18287;DHT22;9269;50.838;12.094;2023-10-19T12:55:54;18.60;57.40
18287;DHT22;9269;50.838;12.094;2023-10-19T12:58:25;18.60;57.90
18287;DHT22;9269;50.838;12.094;2023-10-19T13:00:55;18.60;57.70
18287;DHT22;9269;50.838;12.094;2023-10-19T13:03:43;18.60;57.70
18287;DHT22;9269;50.838;12.094;2023-10-19T13:06:14;18.50;57.80
18287;DHT22;9269;50.838;12.094;2023-10-19T13:08:43;18.60;57.90
18287;DHT22;9269;50.838;12.094;2023-10-19T13:11:12;18.60;57.90
18287;DHT22;9269;50.838;12.094;2023-10-19T13:13:46;18.60;58.00
18287;DHT22;9269;50.838;12.094;2023-10-19T13:16:15;18.70;57.80
18287;DHT22;9269;50.838;12.094;2023-10-19T13:18:45;18.70;57.80
18287;DHT22;9269;50.838;12.094;2023-10-19T13:21:14;18.70;57.70
18287;DHT22;9269;50.838;12.094;2023-10-19T13:23:49;18.80;57.50
18287;DHT22;9269;50.838;12.094;2023-10-19T13:26:18;18.80;58.00
18287;DHT22;9269;50.838;12.094;2023-10-19T13:28:49;18.90;57.30
18287;DHT22;9269;50.838;12.094;2023-10-19T13:31:20;18.90;57.30
18287;DHT22;9269;50.838;12.094;2023-10-19T13:33:51;18.80;57.40
18287;DHT22;9269;50.838;12.094;2023-10-19T13:36:23;19.00;57.20
18287;DHT22;9269;50.838;12.094;2023-10-19T13:38:52;18.90;57.70
18287;DHT22;9269;50.838;12.094;2023-10-19T13:41:20;18.80;58.10
18287;DHT22;9269;50.838;12.094;2023-10-19T13:43:51;18.80;58.10
18287;DHT22;9269;50.838;12.094;2023-10-19T13:46:20;18.80;58.00
18287;DHT22;9269;50.838;12.094;2023-10-19T13:48:51;18.80;57.70
18287;DHT22;9269;50.838;12.094;2023-10-19T13:51:20;18.80;57.70
18287;DHT22;9269;50.838;12.094;2023-10-19T13:53:50;18.70;57.40
18287;DHT22;9269;50.838;12.094;2023-10-19T13:56:18;18.80;58.00
18287;DHT22;9269;50.838;12.094;2023-10-19T13:58:47;18.70;57.60
18287;DHT22;9269;50.838;12.094;2023-10-19T14:01:18;18.70;58.00
18287;DHT22;9269;50.838;12.094;2023-10-19T14:03:48;18.70;58.10
18287;DHT22;9269;50.838;12.094;2023-10-19T14:06:19;18.70;58.50
18287;DHT22;9269;50.838;12.094;2023-10-19T14:08:48;18.70;58.30
18287;DHT22;9269;50.838;12.094;2023-10-19T14:11:16;18.70;58.10
18287;DHT22;9269;50.838;12.094;2023-10-19T14:13:45;18.70;57.90
18287;DHT22;9269;50.838;12.094;2023-10-19T14:16:14;18.70;58.20
18287;DHT22;9269;50.838;12.094;2023-10-19T14:18:45;18.80;58.40
18287;DHT22;9269;50.838;12.094;2023-10-19T14:21:16;18.70;58.10
18287;DHT22;9269;50.838;12.094;2023-10-19T14:23:48;18.80;57.90
18287;DHT22;9269;50.838;12.094;2023-10-19T14:26:18;18.80;58.10
18287;DHT22;9269;50.838;12.094;2023-10-19T14:28:47;18.90;58.50
18287;DHT22;9269;50.838;12.094;2023-10-19T14:31:16;18.80;58.40
18287;DHT22;9269;50.838;12.094;2023-10-19T14:33:45;19.00;58.50
18287;DHT22;9269;50.838;12.094;2023-10-19T14:36:14;18.90;58.10
18287;DHT22;9269;50.838;12.094;2023-10-19T14:38:43;18.90;58.00
18287;DHT22;9269;50.838;12.094;2023-10-19T14:41:14;19.00;57.60
18287;DHT22;9269;50.838;12.094;2023-10-19T14:43:43;18.90;57.50
18287;DHT22;9269;50.838;12.094;2023-10-19T14:46:14;19.00;57.60
18287;DHT22;9269;50.838;12.094;2023-10-19T14:48:45;19.00;57.70
18287;DHT22;9269;50.838;12.094;2023-10-19T14:51:14;18.80;57.80
18287;DHT22;9269;50.838;12.094;2023-10-19T14:53:43;18.80;57.40
18287;DHT22;9269;50.838;12.094;2023-10-19T14:56:11;18.80;58.00
18287;DHT22;9269;50.838;12.094;2023-10-19T14:58:40;18.80;58.10
18287;DHT22;9269;50.838;12.094;2023-10-19T15:01:10;18.70;57.80
18287;DHT22;9269;50.838;12.094;2023-10-19T15:03:46;18.60;58.30
18287;DHT22;9269;50.838;12.094;2023-10-19T15:06:17;18.60;58.30
18287;DHT22;9269;50.838;12.094;2023-10-19T15:08:47;18.60;58.40
18287;DHT22;9269;50.838;12.094;2023-10-19T15:11:17;18.50;58.20
18287;DHT22;9269;50.838;12.094;2023-10-19T15:13:47;18.40;58.50
18287;DHT22;9269;50.838;12.094;2023-10-19T15:16:18;18.40;58.50
18287;DHT22;9269;50.838;12.094;2023-10-19T15:18:48;18.30;58.60
18287;DHT22;9269;50.838;12.094;2023-10-19T15:21:17;18.20;58.80
18287;DHT22;9269;50.838;12.094;2023-10-19T15:23:46;18.10;60.10
18287;DHT22;9269;50.838;12.094;2023-10-19T15:26:17;18.10;60.30
18287;DHT22;9269;50.838;12.094;2023-10-19T15:28:46;18.00;60.30
18287;DHT22;9269;50.838;12.094;2023-10-19T15:31:16;18.00;60.60
18287;DHT22;9269;50.838;12.094;2023-10-19T15:33:44;18.00;60.40
18287;DHT22;9269;50.838;12.094;2023-10-19T15:36:16;17.90;60.20
18287;DHT22;9269;50.838;12.094;2023-10-19T15:38:45;17.90;60.70
18287;DHT22;9269;50.838;12.094;2023-10-19T15:41:14;17.90;60.60
18287;DHT22;9269;50.838;12.094;2023-10-19T15:43:43;17.70;60.70
18287;DHT22;9269;50.838;12.094;2023-10-19T15:46:13;17.70;60.80
18287;DHT22;9269;50.838;12.094;2023-10-19T15:48:43;17.50;61.00
18287;DHT22;9269;50.838;12.094;2023-10-19T15:51:11;17.50;61.20
18287;DHT22;9269;50.838;12.094;2023-10-19T15:53:41;17.40;61.30
18287;DHT22;9269;50.838;12.094;2023-10-19T15:56:10;17.40;61.30
18287;DHT22;9269;50.838;12.094;2023-10-19T15:58:39;17.40;61.30
18287;DHT22;9269;50.838;12.094;2023-10-19T16:01:08;17.40;61.40